sensor_id;sensor_type;location;lat;lon;timestamp;temperature;humidity
439;DHT22;206;48.782;9.252;2023-06-14T00:01:50;19.90;9.10
439;DHT22;206;48.782;9.252;2023-06-14T00:04:15;19.90;9.10
439;DHT22;206;48.782;9.252;2023-06-14T00:06:46;19.90;9.40
439;DHT22;206;48.782;9.252;2023-06-14T00:09:12;19.80;9.70
439;DHT22;206;48.782;9.252;2023-06-14T00:11:42;19.70;10.00
439;DHT22;206;48.782;9.252;2023-06-14T00:14:07;19.60;9.90
439;DHT22;206;48.782;9.252;2023-06-14T00:16:36;19.50;10.10
439;DHT22;206;48.782;9.252;2023-06-14T00:19:02;19.50;10.10
439;DHT22;206;48.782;9.252;2023-06-14T00:21:31;19.50;10.50
439;DHT22;206;48.782;9.252;2023-06-14T00:23:58;19.40;10.20
439;DHT22;206;48.782;9.252;2023-06-14T00:26:24;19.40;10.50
439;DHT22;206;48.782;9.252;2023-06-14T00:28:51;19.50;10.40
439;DHT22;206;48.782;9.252;2023-06-14T00:31:17;19.40;10.70
439;DHT22;206;48.782;9.252;2023-06-14T00:33:42;19.30;11.50
439;DHT22;206;48.782;9.252;2023-06-14T00:36:11;19.20;11.80
439;DHT22;206;48.782;9.252;2023-06-14T00:38:37;19.10;12.00
439;DHT22;206;48.782;9.252;2023-06-14T00:41:02;19.10;12.10
439;DHT22;206;48.782;9.252;2023-06-14T00:43:29;19.00;11.90
439;DHT22;206;48.782;9.252;2023-06-14T00:45:54;19.00;11.90
439;DHT22;206;48.782;9.252;2023-06-14T00:48:20;19.00;11.90
439;DHT22;206;48.782;9.252;2023-06-14T00:50:47;18.90;12.20
439;DHT22;206;48.782;9.252;2023-06-14T00:53:15;18.70;12.40
439;DHT22;206;48.782;9.252;2023-06-14T00:55:46;18.60;12.50
439;DHT22;206;48.782;9.252;2023-06-14T00:58:12;18.60;12.80
439;DHT22;206;48.782;9.252;2023-06-14T01:00:38;18.60;13.40
439;DHT22;206;48.782;9.252;2023-06-14T01:03:04;18.50;13.00
439;DHT22;206;48.782;9.252;2023-06-14T01:05:30;18.50;13.10
439;DHT22;206;48.782;9.252;2023-06-14T01:13:28;18.60;13.00
439;DHT22;206;48.782;9.252;2023-06-14T01:15:58;18.50;13.10
439;DHT22;206;48.782;9.252;2023-06-14T01:18:24;18.40;13.50
439;DHT22;206;48.782;9.252;2023-06-14T01:20:51;18.30;13.80
439;DHT22;206;48.782;9.252;2023-06-14T01:23:19;18.20;13.80
439;DHT22;206;48.782;9.252;2023-06-14T01:25:49;18.30;14.30
439;DHT22;206;48.782;9.252;2023-06-14T01:28:24;18.20;14.20
439;DHT22;206;48.782;9.252;2023-06-14T01:30:53;18.20;14.20
439;DHT22;206;48.782;9.252;2023-06-14T01:33:22;18.20;14.20
439;DHT22;206;48.782;9.252;2023-06-14T01:35:52;18.20;14.20
439;DHT22;206;48.782;9.252;2023-06-14T01:38:20;18.10;14.60
439;DHT22;206;48.782;9.252;2023-06-14T01:40:51;18.00;14.80
439;DHT22;206;48.782;9.252;2023-06-14T01:43:18;17.80;15.10
439;DHT22;206;48.782;9.252;2023-06-14T01:45:51;17.80;15.50
439;DHT22;206;48.782;9.252;2023-06-14T01:48:20;17.70;15.40
439;DHT22;206;48.782;9.252;2023-06-14T01:50:45;17.70;15.10
439;DHT22;206;48.782;9.252;2023-06-14T01:53:14;17.60;15.40
439;DHT22;206;48.782;9.252;2023-06-14T01:55:40;17.60;15.50
439;DHT22;206;48.782;9.252;2023-06-14T01:58:11;17.60;15.50
439;DHT22;206;48.782;9.252;2023-06-14T02:00:37;17.60;15.60
439;DHT22;206;48.782;9.252;2023-06-14T02:03:03;17.70;15.60
439;DHT22;206;48.782;9.252;2023-06-14T02:05:31;17.70;15.90
439;DHT22;206;48.782;9.252;2023-06-14T02:07:57;17.60;16.00
439;DHT22;206;48.782;9.252;2023-06-14T02:10:23;17.60;16.20
439;DHT22;206;48.782;9.252;2023-06-14T02:12:48;17.60;16.30
439;DHT22;206;48.782;9.252;2023-06-14T02:15:14;17.50;16.40
439;DHT22;206;48.782;9.252;2023-06-14T02:17:42;17.50;16.60
439;DHT22;206;48.782;9.252;2023-06-14T02:20:08;17.50;16.70
439;DHT22;206;48.782;9.252;2023-06-14T02:22:35;17.40;16.70
439;DHT22;206;48.782;9.252;2023-06-14T02:25:00;17.30;16.80
439;DHT22;206;48.782;9.252;2023-06-14T02:27:26;17.30;16.80
439;DHT22;206;48.782;9.252;2023-06-14T02:29:51;17.30;17.20
439;DHT22;206;48.782;9.252;2023-06-14T02:32:17;17.30;17.00
439;DHT22;206;48.782;9.252;2023-06-14T02:34:42;17.30;17.10
439;DHT22;206;48.782;9.252;2023-06-14T02:37:08;17.30;17.30
439;DHT22;206;48.782;9.252;2023-06-14T02:39:34;17.30;17.50
439;DHT22;206;48.782;9.252;2023-06-14T02:42:00;17.20;17.40
439;DHT22;206;48.782;9.252;2023-06-14T02:44:26;17.10;17.50
439;DHT22;206;48.782;9.252;2023-06-14T02:46:55;17.10;17.70
439;DHT22;206;48.782;9.252;2023-06-14T02:49:21;17.00;17.70
439;DHT22;206;48.782;9.252;2023-06-14T02:51:47;17.00;17.80
439;DHT22;206;48.782;9.252;2023-06-14T02:54:12;17.00;18.10
439;DHT22;206;48.782;9.252;2023-06-14T02:56:39;16.90;18.20
439;DHT22;206;48.782;9.252;2023-06-14T02:59:04;16.90;18.30
439;DHT22;206;48.782;9.252;2023-06-14T03:01:30;16.90;18.30
439;DHT22;206;48.782;9.252;2023-06-14T03:03:59;16.90;18.20
439;DHT22;206;48.782;9.252;2023-06-14T03:06:25;16.90;18.40
439;DHT22;206;48.782;9.252;2023-06-14T03:08:50;16.80;18.40
439;DHT22;206;48.782;9.252;2023-06-14T03:11:17;16.80;18.70
439;DHT22;206;48.782;9.252;2023-06-14T03:13:45;16.70;18.80
439;DHT22;206;48.782;9.252;2023-06-14T03:16:12;16.70;18.70
439;DHT22;206;48.782;9.252;2023-06-14T03:18:38;16.70;18.70
439;DHT22;206;48.782;9.252;2023-06-14T03:21:03;16.70;18.80
439;DHT22;206;48.782;9.252;2023-06-14T03:23:30;16.70;19.00
439;DHT22;206;48.782;9.252;2023-06-14T03:25:56;16.70;19.10
439;DHT22;206;48.782;9.252;2023-06-14T03:28:22;16.70;19.20
439;DHT22;206;48.782;9.252;2023-06-14T03:30:47;16.70;19.30
439;DHT22;206;48.782;9.252;2023-06-14T03:33:13;16.60;19.30
439;DHT22;206;48.782;9.252;2023-06-14T03:35:39;16.60;19.30
439;DHT22;206;48.782;9.252;2023-06-14T03:38:05;16.60;19.20
439;DHT22;206;48.782;9.252;2023-06-14T03:40:30;16.70;18.80
439;DHT22;206;48.782;9.252;2023-06-14T03:42:56;16.70;19.00
439;DHT22;206;48.782;9.252;2023-06-14T03:45:22;16.60;19.00
439;DHT22;206;48.782;9.252;2023-06-14T03:47:47;16.60;19.10
439;DHT22;206;48.782;9.252;2023-06-14T03:50:13;16.60;19.30
439;DHT22;206;48.782;9.252;2023-06-14T03:52:39;16.50;19.40
439;DHT22;206;48.782;9.252;2023-06-14T03:55:08;16.60;19.60
439;DHT22;206;48.782;9.252;2023-06-14T03:57:33;16.60;19.50
439;DHT22;206;48.782;9.252;2023-06-14T03:59:59;16.60;19.30
439;DHT22;206;48.782;9.252;2023-06-14T04:02:25;16.70;19.30
439;DHT22;206;48.782;9.252;2023-06-14T04:04:54;16.60;19.20
439;DHT22;206;48.782;9.252;2023-06-14T04:07:20;16.60;19.40
439;DHT22;206;48.782;9.252;2023-06-14T04:09:46;16.60;19.60
439;DHT22;206;48.782;9.252;2023-06-14T04:12:12;16.60;19.70
439;DHT22;206;48.782;9.252;2023-06-14T04:14:41;16.60;19.70
439;DHT22;206;48.782;9.252;2023-06-14T04:17:07;16.50;19.80
439;DHT22;206;48.782;9.252;2023-06-14T04:19:32;16.60;19.90
439;DHT22;206;48.782;9.252;2023-06-14T04:21:59;16.60;20.20
439;DHT22;206;48.782;9.252;2023-06-14T04:24:27;16.60;20.30
439;DHT22;206;48.782;9.252;2023-06-14T04:26:58;16.70;20.40
439;DHT22;206;48.782;9.252;2023-06-14T04:29:24;16.60;20.20
439;DHT22;206;48.782;9.252;2023-06-14T04:31:54;16.70;20.40
439;DHT22;206;48.782;9.252;2023-06-14T04:34:20;16.70;20.20
439;DHT22;206;48.782;9.252;2023-06-14T04:36:47;16.60;20.20
439;DHT22;206;48.782;9.252;2023-06-14T04:39:19;16.70;20.10
439;DHT22;206;48.782;9.252;2023-06-14T04:41:45;16.60;20.00
439;DHT22;206;48.782;9.252;2023-06-14T04:44:10;16.60;20.10
439;DHT22;206;48.782;9.252;2023-06-14T04:46:38;16.70;20.20
439;DHT22;206;48.782;9.252;2023-06-14T04:49:17;16.70;20.60
439;DHT22;206;48.782;9.252;2023-06-14T04:51:43;16.80;20.60
439;DHT22;206;48.782;9.252;2023-06-14T04:54:09;16.90;20.70
439;DHT22;206;48.782;9.252;2023-06-14T04:56:38;16.90;20.60
439;DHT22;206;48.782;9.252;2023-06-14T04:59:04;17.00;20.10
439;DHT22;206;48.782;9.252;2023-06-14T05:01:33;17.00;19.90
439;DHT22;206;48.782;9.252;2023-06-14T05:04:32;17.00;19.80
439;DHT22;206;48.782;9.252;2023-06-14T05:06:54;16.90;19.90
439;DHT22;206;48.782;9.252;2023-06-14T05:09:23;16.90;20.60
439;DHT22;206;48.782;9.252;2023-06-14T05:11:49;16.90;20.50
439;DHT22;206;48.782;9.252;2023-06-14T05:14:16;16.90;20.40
439;DHT22;206;48.782;9.252;2023-06-14T05:16:42;17.10;20.40
439;DHT22;206;48.782;9.252;2023-06-14T05:19:08;17.10;20.10
439;DHT22;206;48.782;9.252;2023-06-14T05:21:33;17.30;20.00
439;DHT22;206;48.782;9.252;2023-06-14T05:24:00;17.50;19.90
439;DHT22;206;48.782;9.252;2023-06-14T05:26:26;17.70;18.80
439;DHT22;206;48.782;9.252;2023-06-14T05:28:58;18.00;17.70
439;DHT22;206;48.782;9.252;2023-06-14T05:31:26;18.20;17.20
439;DHT22;206;48.782;9.252;2023-06-14T05:33:52;18.30;17.00
439;DHT22;206;48.782;9.252;2023-06-14T05:36:21;18.50;15.50
439;DHT22;206;48.782;9.252;2023-06-14T05:38:47;18.60;15.60
439;DHT22;206;48.782;9.252;2023-06-14T05:41:12;18.60;15.80
439;DHT22;206;48.782;9.252;2023-06-14T05:43:38;18.70;15.70
439;DHT22;206;48.782;9.252;2023-06-14T05:46:04;18.70;15.50
439;DHT22;206;48.782;9.252;2023-06-14T05:48:33;18.90;15.50
439;DHT22;206;48.782;9.252;2023-06-14T05:50:59;19.00;15.30
439;DHT22;206;48.782;9.252;2023-06-14T05:53:24;19.10;15.20
439;DHT22;206;48.782;9.252;2023-06-14T05:55:50;19.20;14.90
439;DHT22;206;48.782;9.252;2023-06-14T05:58:18;19.30;15.00
439;DHT22;206;48.782;9.252;2023-06-14T06:00:44;19.30;15.50
439;DHT22;206;48.782;9.252;2023-06-14T06:03:11;19.20;14.90
439;DHT22;206;48.782;9.252;2023-06-14T06:05:38;19.10;14.80
439;DHT22;206;48.782;9.252;2023-06-14T06:08:04;19.20;14.90
439;DHT22;206;48.782;9.252;2023-06-14T06:10:29;19.40;15.00
439;DHT22;206;48.782;9.252;2023-06-14T06:12:55;19.40;15.00
439;DHT22;206;48.782;9.252;2023-06-14T06:15:21;19.50;14.90
439;DHT22;206;48.782;9.252;2023-06-14T06:17:46;19.60;14.30
439;DHT22;206;48.782;9.252;2023-06-14T06:20:12;19.80;14.20
439;DHT22;206;48.782;9.252;2023-06-14T06:22:38;20.00;14.00
439;DHT22;206;48.782;9.252;2023-06-14T06:25:04;20.20;13.80
439;DHT22;206;48.782;9.252;2023-06-14T06:27:31;20.50;13.40
439;DHT22;206;48.782;9.252;2023-06-14T06:29:57;20.60;12.90
439;DHT22;206;48.782;9.252;2023-06-14T06:32:22;21.00;12.60
439;DHT22;206;48.782;9.252;2023-06-14T06:34:48;21.10;12.00
439;DHT22;206;48.782;9.252;2023-06-14T06:37:14;21.20;11.90
439;DHT22;206;48.782;9.252;2023-06-14T06:39:39;21.50;11.70
439;DHT22;206;48.782;9.252;2023-06-14T06:42:05;21.50;11.50
439;DHT22;206;48.782;9.252;2023-06-14T06:44:32;21.80;11.20
439;DHT22;206;48.782;9.252;2023-06-14T06:46:58;22.00;11.20
439;DHT22;206;48.782;9.252;2023-06-14T06:49:23;22.20;11.10
439;DHT22;206;48.782;9.252;2023-06-14T06:52:02;22.40;10.90
439;DHT22;206;48.782;9.252;2023-06-14T06:54:29;22.70;10.60
439;DHT22;206;48.782;9.252;2023-06-14T06:56:54;23.00;10.00
439;DHT22;206;48.782;9.252;2023-06-14T06:59:20;23.20;9.60
439;DHT22;206;48.782;9.252;2023-06-14T07:01:46;23.30;9.00
439;DHT22;206;48.782;9.252;2023-06-14T07:04:12;23.50;9.10
439;DHT22;206;48.782;9.252;2023-06-14T07:06:38;23.60;8.00
439;DHT22;206;48.782;9.252;2023-06-14T07:09:04;23.70;7.50
439;DHT22;206;48.782;9.252;2023-06-14T07:11:33;23.90;7.60
439;DHT22;206;48.782;9.252;2023-06-14T07:13:59;24.20;7.30
439;DHT22;206;48.782;9.252;2023-06-14T07:16:25;24.30;6.80
439;DHT22;206;48.782;9.252;2023-06-14T07:18:51;24.10;6.90
439;DHT22;206;48.782;9.252;2023-06-14T07:21:17;24.10;6.60
439;DHT22;206;48.782;9.252;2023-06-14T07:23:43;24.20;6.90
439;DHT22;206;48.782;9.252;2023-06-14T07:26:09;24.30;6.50
439;DHT22;206;48.782;9.252;2023-06-14T07:28:34;24.30;6.70
439;DHT22;206;48.782;9.252;2023-06-14T07:31:00;24.50;6.60
439;DHT22;206;48.782;9.252;2023-06-14T07:33:26;24.50;7.10
439;DHT22;206;48.782;9.252;2023-06-14T07:35:51;24.40;6.50
439;DHT22;206;48.782;9.252;2023-06-14T07:38:18;24.60;6.50
439;DHT22;206;48.782;9.252;2023-06-14T07:40:43;24.70;6.60
439;DHT22;206;48.782;9.252;2023-06-14T07:43:09;25.00;6.20
439;DHT22;206;48.782;9.252;2023-06-14T07:45:35;25.00;6.00
439;DHT22;206;48.782;9.252;2023-06-14T07:48:00;24.90;6.00
439;DHT22;206;48.782;9.252;2023-06-14T07:50:27;24.90;6.10
439;DHT22;206;48.782;9.252;2023-06-14T07:52:52;25.00;6.00
439;DHT22;206;48.782;9.252;2023-06-14T07:55:18;25.10;5.90
439;DHT22;206;48.782;9.252;2023-06-14T07:57:44;25.20;5.90
439;DHT22;206;48.782;9.252;2023-06-14T08:00:10;25.30;5.90
439;DHT22;206;48.782;9.252;2023-06-14T08:02:41;25.30;5.80
439;DHT22;206;48.782;9.252;2023-06-14T08:05:07;25.40;5.90
439;DHT22;206;48.782;9.252;2023-06-14T08:07:33;25.40;5.90
439;DHT22;206;48.782;9.252;2023-06-14T08:09:59;25.50;6.00
439;DHT22;206;48.782;9.252;2023-06-14T08:12:24;25.70;6.30
439;DHT22;206;48.782;9.252;2023-06-14T08:14:50;25.60;6.30
439;DHT22;206;48.782;9.252;2023-06-14T08:17:17;25.60;6.30
439;DHT22;206;48.782;9.252;2023-06-14T08:19:42;25.80;6.20
439;DHT22;206;48.782;9.252;2023-06-14T08:22:08;26.00;6.00
439;DHT22;206;48.782;9.252;2023-06-14T08:24:37;26.20;5.80
439;DHT22;206;48.782;9.252;2023-06-14T08:27:02;26.30;5.50
439;DHT22;206;48.782;9.252;2023-06-14T08:29:28;26.50;4.80
439;DHT22;206;48.782;9.252;2023-06-14T08:31:56;26.30;5.40
439;DHT22;206;48.782;9.252;2023-06-14T08:34:22;26.40;5.10
439;DHT22;206;48.782;9.252;2023-06-14T08:36:52;26.50;4.70
439;DHT22;206;48.782;9.252;2023-06-14T08:39:17;26.50;4.40
439;DHT22;206;48.782;9.252;2023-06-14T08:41:46;26.50;4.40
439;DHT22;206;48.782;9.252;2023-06-14T08:44:12;26.30;4.60
439;DHT22;206;48.782;9.252;2023-06-14T08:46:38;26.30;4.60
439;DHT22;206;48.782;9.252;2023-06-14T08:49:04;26.00;5.50
439;DHT22;206;48.782;9.252;2023-06-14T08:51:35;26.00;5.30
439;DHT22;206;48.782;9.252;2023-06-14T08:54:02;25.80;5.20
439;DHT22;206;48.782;9.252;2023-06-14T08:56:29;25.80;5.30
439;DHT22;206;48.782;9.252;2023-06-14T08:58:57;25.70;5.60
439;DHT22;206;48.782;9.252;2023-06-14T09:01:23;25.50;5.70
439;DHT22;206;48.782;9.252;2023-06-14T09:03:50;25.30;5.80
439;DHT22;206;48.782;9.252;2023-06-14T09:06:16;25.40;6.00
439;DHT22;206;48.782;9.252;2023-06-14T09:08:49;25.30;5.80
439;DHT22;206;48.782;9.252;2023-06-14T09:11:16;25.40;5.90
439;DHT22;206;48.782;9.252;2023-06-14T09:13:44;25.50;5.60
439;DHT22;206;48.782;9.252;2023-06-14T09:16:10;25.40;5.60
439;DHT22;206;48.782;9.252;2023-06-14T09:18:40;25.30;6.20
439;DHT22;206;48.782;9.252;2023-06-14T09:21:11;25.40;6.00
439;DHT22;206;48.782;9.252;2023-06-14T09:23:38;25.50;6.00
439;DHT22;206;48.782;9.252;2023-06-14T09:26:14;25.70;5.50
439;DHT22;206;48.782;9.252;2023-06-14T09:28:44;25.50;5.60
439;DHT22;206;48.782;9.252;2023-06-14T09:31:18;25.60;5.90
439;DHT22;206;48.782;9.252;2023-06-14T09:33:45;25.60;5.40
439;DHT22;206;48.782;9.252;2023-06-14T09:36:15;25.20;6.00
439;DHT22;206;48.782;9.252;2023-06-14T09:38:58;25.30;5.00
439;DHT22;206;48.782;9.252;2023-06-14T09:41:33;25.30;5.30
439;DHT22;206;48.782;9.252;2023-06-14T09:44:00;25.20;5.20
439;DHT22;206;48.782;9.252;2023-06-14T09:46:28;25.20;4.30
439;DHT22;206;48.782;9.252;2023-06-14T09:48:55;25.20;5.90
439;DHT22;206;48.782;9.252;2023-06-14T09:51:22;25.30;5.90
439;DHT22;206;48.782;9.252;2023-06-14T09:53:52;25.40;5.50
439;DHT22;206;48.782;9.252;2023-06-14T09:56:41;25.50;5.00
439;DHT22;206;48.782;9.252;2023-06-14T09:59:10;25.60;4.10
439;DHT22;206;48.782;9.252;2023-06-14T10:01:42;25.50;2.80
439;DHT22;206;48.782;9.252;2023-06-14T10:04:09;25.50;2.90
439;DHT22;206;48.782;9.252;2023-06-14T10:06:43;25.60;1.60
439;DHT22;206;48.782;9.252;2023-06-14T10:09:11;25.60;2.90
439;DHT22;206;48.782;9.252;2023-06-14T10:11:38;25.60;3.40
439;DHT22;206;48.782;9.252;2023-06-14T10:14:10;25.70;3.40
439;DHT22;206;48.782;9.252;2023-06-14T10:19:40;25.80;1.00
439;DHT22;206;48.782;9.252;2023-06-14T10:22:19;25.90;1.90
439;DHT22;206;48.782;9.252;2023-06-14T10:24:48;25.90;1.60
439;DHT22;206;48.782;9.252;2023-06-14T10:27:16;26.00;1.70
439;DHT22;206;48.782;9.252;2023-06-14T10:32:23;25.90;1.60
439;DHT22;206;48.782;9.252;2023-06-14T10:35:00;25.90;1.60
439;DHT22;206;48.782;9.252;2023-06-14T10:37:28;25.80;2.20
439;DHT22;206;48.782;9.252;2023-06-14T10:39:53;25.80;2.20
439;DHT22;206;48.782;9.252;2023-06-14T10:42:19;25.90;2.00
439;DHT22;206;48.782;9.252;2023-06-14T10:50:04;26.30;1.00
439;DHT22;206;48.782;9.252;2023-06-14T10:52:33;26.50;1.00
439;DHT22;206;48.782;9.252;2023-06-14T10:57:33;26.70;1.00
439;DHT22;206;48.782;9.252;2023-06-14T11:00:00;26.50;1.10
439;DHT22;206;48.782;9.252;2023-06-14T11:05:29;26.40;1.30
439;DHT22;206;48.782;9.252;2023-06-14T11:10:44;26.50;1.00
439;DHT22;206;48.782;9.252;2023-06-14T11:13:13;26.50;1.20
439;DHT22;206;48.782;9.252;2023-06-14T11:15:45;26.50;1.00
439;DHT22;206;48.782;9.252;2023-06-14T11:18:13;26.70;1.00
439;DHT22;206;48.782;9.252;2023-06-14T11:20:39;26.70;2.00
439;DHT22;206;48.782;9.252;2023-06-14T11:23:05;26.50;2.40
439;DHT22;206;48.782;9.252;2023-06-14T11:25:31;26.30;2.40
439;DHT22;206;48.782;9.252;2023-06-14T11:27:57;26.30;2.60
439;DHT22;206;48.782;9.252;2023-06-14T11:30:23;26.30;2.30
439;DHT22;206;48.782;9.252;2023-06-14T11:32:56;26.30;1.80
439;DHT22;206;48.782;9.252;2023-06-14T11:35:22;26.40;1.90
439;DHT22;206;48.782;9.252;2023-06-14T11:37:54;26.40;1.90
439;DHT22;206;48.782;9.252;2023-06-14T11:40:24;26.40;1.90
439;DHT22;206;48.782;9.252;2023-06-14T11:42:58;26.40;1.90
439;DHT22;206;48.782;9.252;2023-06-14T11:45:24;26.40;1.90
439;DHT22;206;48.782;9.252;2023-06-14T11:47:50;26.50;1.10
439;DHT22;206;48.782;9.252;2023-06-14T11:50:16;26.40;1.00
439;DHT22;206;48.782;9.252;2023-06-14T11:52:42;26.50;1.10
439;DHT22;206;48.782;9.252;2023-06-14T11:55:08;26.50;1.00
439;DHT22;206;48.782;9.252;2023-06-14T11:57:34;26.60;1.00
439;DHT22;206;48.782;9.252;2023-06-14T12:00:03;26.80;1.00
439;DHT22;206;48.782;9.252;2023-06-14T12:02:33;27.00;1.00
439;DHT22;206;48.782;9.252;2023-06-14T12:05:04;26.80;1.00
439;DHT22;206;48.782;9.252;2023-06-14T12:07:32;26.60;1.00
439;DHT22;206;48.782;9.252;2023-06-14T12:12:26;26.50;1.40
439;DHT22;206;48.782;9.252;2023-06-14T12:14:52;26.30;1.80
439;DHT22;206;48.782;9.252;2023-06-14T12:17:19;26.20;1.70
439;DHT22;206;48.782;9.252;2023-06-14T12:19:46;26.10;1.70
439;DHT22;206;48.782;9.252;2023-06-14T12:22:15;26.20;1.70
439;DHT22;206;48.782;9.252;2023-06-14T12:24:45;26.10;1.70
439;DHT22;206;48.782;9.252;2023-06-14T12:27:11;26.10;1.70
439;DHT22;206;48.782;9.252;2023-06-14T12:29:42;26.10;1.50
439;DHT22;206;48.782;9.252;2023-06-14T12:32:10;26.20;1.70
439;DHT22;206;48.782;9.252;2023-06-14T12:34:36;26.20;1.70
439;DHT22;206;48.782;9.252;2023-06-14T12:37:02;26.10;1.70
439;DHT22;206;48.782;9.252;2023-06-14T12:39:30;26.20;1.40
439;DHT22;206;48.782;9.252;2023-06-14T12:41:57;26.30;1.80
439;DHT22;206;48.782;9.252;2023-06-14T12:44:23;26.50;1.90
439;DHT22;206;48.782;9.252;2023-06-14T12:46:48;26.60;1.50
439;DHT22;206;48.782;9.252;2023-06-14T12:49:16;26.70;1.00
439;DHT22;206;48.782;9.252;2023-06-14T12:51:42;26.70;1.00
439;DHT22;206;48.782;9.252;2023-06-14T12:54:08;26.90;1.00
439;DHT22;206;48.782;9.252;2023-06-14T12:56:33;27.00;1.00
439;DHT22;206;48.782;9.252;2023-06-14T12:58:59;27.10;1.00
439;DHT22;206;48.782;9.252;2023-06-14T13:01:25;27.10;1.00
439;DHT22;206;48.782;9.252;2023-06-14T13:03:51;27.10;1.00
439;DHT22;206;48.782;9.252;2023-06-14T13:06:23;27.00;1.00
439;DHT22;206;48.782;9.252;2023-06-14T13:08:49;27.10;1.00
439;DHT22;206;48.782;9.252;2023-06-14T13:11:15;27.20;1.00
439;DHT22;206;48.782;9.252;2023-06-14T13:13:41;27.20;1.00
439;DHT22;206;48.782;9.252;2023-06-14T13:16:07;27.20;1.00
439;DHT22;206;48.782;9.252;2023-06-14T13:18:32;27.10;1.00
439;DHT22;206;48.782;9.252;2023-06-14T13:20:58;27.20;1.00
439;DHT22;206;48.782;9.252;2023-06-14T13:23:24;27.20;1.00
439;DHT22;206;48.782;9.252;2023-06-14T13:25:49;27.30;1.00
439;DHT22;206;48.782;9.252;2023-06-14T13:28:16;27.30;1.00
439;DHT22;206;48.782;9.252;2023-06-14T13:30:42;27.30;1.00
439;DHT22;206;48.782;9.252;2023-06-14T13:33:07;27.40;1.00
439;DHT22;206;48.782;9.252;2023-06-14T13:35:33;27.50;1.00
439;DHT22;206;48.782;9.252;2023-06-14T13:37:59;27.60;1.00
439;DHT22;206;48.782;9.252;2023-06-14T13:40:24;27.70;1.00
439;DHT22;206;48.782;9.252;2023-06-14T13:42:50;27.70;1.00
439;DHT22;206;48.782;9.252;2023-06-14T13:45:16;27.70;1.00
439;DHT22;206;48.782;9.252;2023-06-14T13:47:41;27.70;1.00
439;DHT22;206;48.782;9.252;2023-06-14T13:50:13;27.60;1.00
439;DHT22;206;48.782;9.252;2023-06-14T13:52:38;27.60;1.00
439;DHT22;206;48.782;9.252;2023-06-14T13:55:04;27.60;1.00
439;DHT22;206;48.782;9.252;2023-06-14T13:57:33;27.60;1.00
439;DHT22;206;48.782;9.252;2023-06-14T13:59:58;27.70;1.00
439;DHT22;206;48.782;9.252;2023-06-14T14:02:27;27.80;1.00
439;DHT22;206;48.782;9.252;2023-06-14T14:05:04;27.70;1.00
439;DHT22;206;48.782;9.252;2023-06-14T14:08:11;27.70;1.00
439;DHT22;206;48.782;9.252;2023-06-14T14:11:12;27.40;1.00
439;DHT22;206;48.782;9.252;2023-06-14T14:17:09;26.90;1.50
439;DHT22;206;48.782;9.252;2023-06-14T14:27:14;26.70;1.50
439;DHT22;206;48.782;9.252;2023-06-14T14:33:11;26.80;1.10
439;DHT22;206;48.782;9.252;2023-06-14T14:35:41;26.80;1.20
439;DHT22;206;48.782;9.252;2023-06-14T14:38:27;26.80;1.20
439;DHT22;206;48.782;9.252;2023-06-14T14:40:56;26.80;1.50
439;DHT22;206;48.782;9.252;2023-06-14T14:43:48;26.80;1.30
439;DHT22;206;48.782;9.252;2023-06-14T14:50:05;27.10;1.00
439;DHT22;206;48.782;9.252;2023-06-14T14:56:06;27.50;1.00
439;DHT22;206;48.782;9.252;2023-06-14T14:58:32;27.70;1.00
439;DHT22;206;48.782;9.252;2023-06-14T15:04:28;27.70;1.00
439;DHT22;206;48.782;9.252;2023-06-14T15:18:04;27.50;1.20
439;DHT22;206;48.782;9.252;2023-06-14T15:24:17;27.00;1.10
439;DHT22;206;48.782;9.252;2023-06-14T15:26:42;26.90;1.50
439;DHT22;206;48.782;9.252;2023-06-14T15:29:08;26.80;1.50
439;DHT22;206;48.782;9.252;2023-06-14T15:31:34;26.70;1.90
439;DHT22;206;48.782;9.252;2023-06-14T15:34:00;26.80;2.00
439;DHT22;206;48.782;9.252;2023-06-14T15:36:25;26.80;1.70
439;DHT22;206;48.782;9.252;2023-06-14T15:38:51;26.80;1.40
439;DHT22;206;48.782;9.252;2023-06-14T15:41:17;26.90;1.10
439;DHT22;206;48.782;9.252;2023-06-14T15:43:42;26.90;1.00
439;DHT22;206;48.782;9.252;2023-06-14T15:46:08;27.00;1.00
439;DHT22;206;48.782;9.252;2023-06-14T15:48:33;27.00;1.20
439;DHT22;206;48.782;9.252;2023-06-14T15:50:59;27.00;1.00
439;DHT22;206;48.782;9.252;2023-06-14T15:53:25;26.90;1.10
439;DHT22;206;48.782;9.252;2023-06-14T15:55:50;26.90;1.30
439;DHT22;206;48.782;9.252;2023-06-14T15:58:16;27.00;2.10
439;DHT22;206;48.782;9.252;2023-06-14T16:00:42;27.10;1.20
439;DHT22;206;48.782;9.252;2023-06-14T16:03:07;27.00;1.00
439;DHT22;206;48.782;9.252;2023-06-14T16:05:33;26.80;1.50
439;DHT22;206;48.782;9.252;2023-06-14T16:07:59;26.80;1.20
439;DHT22;206;48.782;9.252;2023-06-14T16:10:24;26.80;1.20
439;DHT22;206;48.782;9.252;2023-06-14T16:12:52;26.90;1.10
439;DHT22;206;48.782;9.252;2023-06-14T16:15:18;26.80;1.20
439;DHT22;206;48.782;9.252;2023-06-14T16:17:43;26.80;1.10
439;DHT22;206;48.782;9.252;2023-06-14T16:20:09;26.90;1.20
439;DHT22;206;48.782;9.252;2023-06-14T16:22:36;26.90;1.30
439;DHT22;206;48.782;9.252;2023-06-14T16:25:02;26.80;1.50
439;DHT22;206;48.782;9.252;2023-06-14T16:27:28;26.80;2.10
439;DHT22;206;48.782;9.252;2023-06-14T16:29:53;26.70;2.00
439;DHT22;206;48.782;9.252;2023-06-14T16:32:19;26.70;2.00
439;DHT22;206;48.782;9.252;2023-06-14T16:34:45;26.70;2.00
439;DHT22;206;48.782;9.252;2023-06-14T16:37:11;26.70;1.60
439;DHT22;206;48.782;9.252;2023-06-14T16:39:36;26.80;1.30
439;DHT22;206;48.782;9.252;2023-06-14T16:42:02;26.80;1.30
439;DHT22;206;48.782;9.252;2023-06-14T16:44:28;26.70;1.30
439;DHT22;206;48.782;9.252;2023-06-14T16:46:53;26.70;1.50
439;DHT22;206;48.782;9.252;2023-06-14T16:49:21;26.60;1.40
439;DHT22;206;48.782;9.252;2023-06-14T16:51:47;26.70;1.20
439;DHT22;206;48.782;9.252;2023-06-14T16:54:13;26.60;1.40
439;DHT22;206;48.782;9.252;2023-06-14T16:56:38;26.60;1.50
439;DHT22;206;48.782;9.252;2023-06-14T16:59:04;26.50;1.40
439;DHT22;206;48.782;9.252;2023-06-14T17:01:30;26.50;1.30
439;DHT22;206;48.782;9.252;2023-06-14T17:03:56;26.40;1.10
439;DHT22;206;48.782;9.252;2023-06-14T17:06:21;26.40;1.40
439;DHT22;206;48.782;9.252;2023-06-14T17:08:47;26.40;1.80
439;DHT22;206;48.782;9.252;2023-06-14T17:11:13;26.40;1.90
439;DHT22;206;48.782;9.252;2023-06-14T17:13:40;26.40;1.90
439;DHT22;206;48.782;9.252;2023-06-14T17:16:06;26.40;1.90
439;DHT22;206;48.782;9.252;2023-06-14T17:18:33;26.40;1.90
439;DHT22;206;48.782;9.252;2023-06-14T17:21:00;26.40;1.90
439;DHT22;206;48.782;9.252;2023-06-14T17:23:26;26.40;2.40
439;DHT22;206;48.782;9.252;2023-06-14T17:25:51;26.30;2.30
439;DHT22;206;48.782;9.252;2023-06-14T17:28:17;26.30;2.50
439;DHT22;206;48.782;9.252;2023-06-14T17:30:43;26.30;2.40
439;DHT22;206;48.782;9.252;2023-06-14T17:33:09;26.20;2.50
439;DHT22;206;48.782;9.252;2023-06-14T17:35:35;26.30;2.30
439;DHT22;206;48.782;9.252;2023-06-14T17:38:02;26.20;2.30
439;DHT22;206;48.782;9.252;2023-06-14T17:40:28;26.20;2.50
439;DHT22;206;48.782;9.252;2023-06-14T17:42:54;26.10;2.90
439;DHT22;206;48.782;9.252;2023-06-14T17:45:19;26.10;2.90
439;DHT22;206;48.782;9.252;2023-06-14T17:47:45;26.00;2.80
439;DHT22;206;48.782;9.252;2023-06-14T17:50:11;25.90;2.70
439;DHT22;206;48.782;9.252;2023-06-14T17:52:36;25.90;3.10